createdAt,value
2019-01-06T00:02:52.388Z,64.20
2019-01-06T00:06:04.782Z,64.30
2019-01-06T00:09:11.334Z,64.50
2019-01-06T00:12:20.165Z,63.90
2019-01-06T00:15:29.607Z,64.10
2019-01-06T00:18:36.073Z,64.40
2019-01-06T00:21:42.565Z,64.80
2019-01-06T00:24:54.877Z,64.50
2019-01-06T00:28:01.723Z,64.80
2019-01-06T00:31:08.296Z,64.80
2019-01-06T00:34:30.849Z,65.40
2019-01-06T00:37:45.747Z,66.20
2019-01-06T00:40:58.234Z,66.00
2019-01-06T00:44:20.778Z,66.10
2019-01-06T00:47:27.242Z,66.40
2019-01-06T00:50:42.819Z,66.60
2019-01-06T00:53:58.265Z,66.90
2019-01-06T00:57:04.748Z,67.50
2019-01-06T01:00:20.260Z,67.20
2019-01-06T01:03:35.674Z,66.80
2019-01-06T01:06:42.238Z,66.60
2019-01-06T01:10:04.672Z,66.30
2019-01-06T01:13:16.799Z,65.80
2019-01-06T01:16:26.338Z,65.50
2019-01-06T01:19:35.482Z,65.50
2019-01-06T01:22:57.985Z,65.70
2019-01-06T01:26:04.439Z,66.00
2019-01-06T01:29:10.892Z,66.30
2019-01-06T01:32:33.429Z,65.80
2019-01-06T01:35:49.022Z,65.30
2019-01-06T01:39:04.190Z,65.00
2019-01-06T01:42:10.700Z,65.20
2019-01-06T01:45:19.940Z,65.60
2019-01-06T01:48:28.870Z,66.00
2019-01-06T01:51:38.025Z,65.80
2019-01-06T01:54:47.432Z,66.00
2019-01-06T01:57:56.890Z,66.30
2019-01-06T02:01:05.835Z,66.40
2019-01-06T02:04:12.294Z,66.70
2019-01-06T02:07:27.679Z,66.80
2019-01-06T02:10:43.001Z,67.60
2019-01-06T02:13:49.482Z,67.30
2019-01-06T02:17:04.513Z,67.30
2019-01-06T02:20:10.975Z,67.50
2019-01-06T02:23:20.130Z,67.70
2019-01-06T02:26:29.635Z,67.60
2019-01-06T02:29:36.155Z,67.50
2019-01-06T02:32:58.966Z,67.40
2019-01-06T02:36:11.441Z,67.30
2019-01-06T02:39:26.907Z,67.50
2019-01-06T02:42:49.683Z,67.70
2019-01-06T02:45:56.130Z,67.90
2019-01-06T02:49:20.486Z,67.70
2019-01-06T02:52:41.690Z,67.50
2019-01-06T02:55:48.210Z,67.70
2019-01-06T02:59:09.763Z,68.00
2019-01-06T03:02:25.225Z,68.10
2019-01-06T03:05:34.718Z,68.60
2019-01-06T03:08:59.314Z,68.40
2019-01-06T03:12:05.764Z,68.40
2019-01-06T03:15:20.767Z,68.40
2019-01-06T03:18:27.462Z,67.80
2019-01-06T03:21:48.770Z,67.10
2019-01-06T03:24:58.192Z,66.10
2019-01-06T03:28:07.602Z,65.90
2019-01-06T03:31:14.127Z,65.60
2019-01-06T03:34:26.667Z,65.40
2019-01-06T03:37:42.172Z,65.60
2019-01-06T03:40:48.712Z,65.50
2019-01-06T03:43:55.181Z,65.30
2019-01-06T03:47:04.651Z,65.30
2019-01-06T03:50:23.180Z,65.70
2019-01-06T03:53:46.012Z,65.20
2019-01-06T03:57:10.555Z,64.80
2019-01-06T04:00:25.904Z,65.10
2019-01-06T04:03:41.983Z,64.70
2019-01-06T04:06:54.083Z,64.30
2019-01-06T04:10:06.294Z,64.60
2019-01-06T04:13:21.543Z,64.90
2019-01-06T04:16:42.890Z,64.40
2019-01-06T04:19:55.266Z,64.80
2019-01-06T04:23:07.127Z,64.10
2019-01-06T04:26:19.710Z,63.80
2019-01-06T04:29:42.218Z,63.90
2019-01-06T04:32:51.686Z,63.90
2019-01-06T04:36:14.144Z,64.00
2019-01-06T04:39:20.627Z,63.80
2019-01-06T04:42:27.151Z,64.20
2019-01-06T04:45:45.338Z,64.40
2019-01-06T04:49:07.933Z,64.30
2019-01-06T04:52:30.648Z,64.40
2019-01-06T04:55:52.841Z,64.40
2019-01-06T04:59:02.218Z,64.20
2019-01-06T05:02:14.456Z,63.90
2019-01-06T05:05:36.938Z,63.50
2019-01-06T05:08:59.684Z,63.60
2019-01-06T05:12:08.786Z,63.50
2019-01-06T05:15:24.274Z,63.50
2019-01-06T05:18:33.698Z,63.70
2019-01-06T05:21:56.297Z,63.50
2019-01-06T05:25:19.158Z,63.20
2019-01-06T05:28:25.606Z,63.30
2019-01-06T05:31:41.113Z,62.90
2019-01-06T05:35:03.927Z,62.90
2019-01-06T05:38:26.270Z,63.10
2019-01-06T05:41:35.751Z,63.10
2019-01-06T05:44:48.112Z,63.50
2019-01-06T05:48:09.355Z,63.30
2019-01-06T05:51:15.841Z,63.40
2019-01-06T05:54:31.367Z,63.00
2019-01-06T05:57:46.942Z,63.40
2019-01-06T06:00:53.474Z,63.10
2019-01-06T06:04:02.852Z,63.10
2019-01-06T06:07:11.327Z,63.50
2019-01-06T06:10:20.094Z,63.60
2019-01-06T06:13:42.930Z,63.80
2019-01-06T06:17:05.619Z,64.20
2019-01-06T06:20:12.115Z,64.10
2019-01-06T06:23:21.478Z,63.80
2019-01-06T06:26:27.956Z,63.70
2019-01-06T06:29:50.660Z,63.70
2019-01-06T06:33:15.043Z,63.20
2019-01-06T06:36:21.515Z,63.00
2019-01-06T06:39:36.907Z,62.40
2019-01-06T06:42:55.081Z,62.80
2019-01-06T06:46:07.705Z,62.10
2019-01-06T06:49:20.095Z,62.00
2019-01-06T06:52:45.386Z,61.50
2019-01-06T06:55:51.838Z,61.10
2019-01-06T06:59:04.191Z,61.50
2019-01-06T07:02:30.299Z,61.70
2019-01-06T07:05:39.431Z,61.10
2019-01-06T07:08:48.777Z,61.50
2019-01-06T07:12:11.496Z,61.50
2019-01-06T07:15:17.963Z,61.30
2019-01-06T07:18:33.382Z,61.00
2019-01-06T07:21:39.837Z,60.40
2019-01-06T07:24:52.255Z,61.00
2019-01-06T07:28:01.741Z,60.60
2019-01-06T07:31:08.616Z,60.90
2019-01-06T07:34:31.072Z,61.20
2019-01-06T07:37:41.274Z,59.80
2019-01-06T07:40:56.516Z,60.30
2019-01-06T07:44:19.315Z,61.10
2019-01-06T07:47:25.868Z,60.60
2019-01-06T07:50:32.386Z,60.40
2019-01-06T07:53:38.887Z,60.90
2019-01-06T07:56:45.423Z,60.40
2019-01-06T07:59:54.353Z,60.40
2019-01-06T08:03:01.032Z,60.40
2019-01-06T08:06:10.426Z,59.60
2019-01-06T08:09:28.737Z,59.60
2019-01-06T08:12:40.876Z,59.80
2019-01-06T08:15:47.393Z,60.00
2019-01-06T08:18:53.874Z,59.70
2019-01-06T08:22:05.972Z,59.80
2019-01-06T08:25:27.271Z,59.40
2019-01-06T08:28:48.800Z,58.50
2019-01-06T08:32:10.087Z,58.50
2019-01-06T08:35:22.077Z,58.30
2019-01-06T08:38:28.560Z,58.50
2019-01-06T08:41:35.063Z,57.40
2019-01-06T08:44:57.727Z,57.40
2019-01-06T08:48:20.169Z,57.70
2019-01-06T08:51:42.622Z,57.80
2019-01-06T08:54:52.063Z,58.00
2019-01-06T08:58:07.354Z,57.50
2019-01-06T09:01:16.843Z,57.60
2019-01-06T09:04:23.289Z,57.50
2019-01-06T09:07:46.522Z,57.40
2019-01-06T09:11:04.960Z,56.30
2019-01-06T09:14:21.002Z,56.30
2019-01-06T09:17:30.176Z,55.70
2019-01-06T09:20:52.927Z,55.60
2019-01-06T09:23:59.422Z,55.60
2019-01-06T09:27:22.173Z,55.60
2019-01-06T09:30:28.634Z,55.40
2019-01-06T09:33:37.826Z,55.10
2019-01-06T09:36:49.974Z,54.60
2019-01-06T09:40:12.642Z,53.60
2019-01-06T09:43:19.119Z,52.90
2019-01-06T09:46:32.605Z,53.10
2019-01-06T09:49:41.816Z,52.10
2019-01-06T09:53:06.175Z,50.90
2019-01-06T09:56:28.687Z,52.00
2019-01-06T09:59:41.011Z,51.70
2019-01-06T10:02:53.425Z,50.90
2019-01-06T10:06:05.614Z,50.90
2019-01-06T10:09:28.119Z,51.40
2019-01-06T10:12:46.549Z,52.00
2019-01-06T10:16:07.642Z,51.20
2019-01-06T10:19:14.134Z,50.80
2019-01-06T10:22:36.868Z,51.30
2019-01-06T10:25:46.216Z,50.10
2019-01-06T10:29:07.845Z,50.40
2019-01-06T10:32:14.422Z,49.90
2019-01-06T10:35:33.814Z,49.80
2019-01-06T10:38:55.179Z,50.50
2019-01-06T10:42:13.617Z,48.20
2019-01-06T10:45:26.168Z,48.90
2019-01-06T10:48:44.479Z,48.20
2019-01-06T10:51:57.200Z,48.50
2019-01-06T10:55:21.566Z,49.10
2019-01-06T10:58:33.560Z,47.50
2019-01-06T11:01:46.124Z,47.70
2019-01-06T11:04:58.741Z,47.40
2019-01-06T11:08:05.269Z,45.70
2019-01-06T11:11:28.086Z,47.30
2019-01-06T11:14:34.550Z,46.50
2019-01-06T11:17:57.121Z,46.20
2019-01-06T11:21:15.434Z,47.00
2019-01-06T11:24:28.024Z,47.50
2019-01-06T11:27:43.273Z,47.80
2019-01-06T11:31:01.753Z,48.00
2019-01-06T11:34:08.303Z,47.90
2019-01-06T11:37:20.739Z,47.40
2019-01-06T11:40:29.975Z,47.00
2019-01-06T11:43:42.226Z,47.10
2019-01-06T11:47:00.548Z,45.90
2019-01-06T11:50:19.126Z,45.70
2019-01-06T11:53:37.604Z,45.50
2019-01-06T11:57:00.469Z,45.40
2019-01-06T12:00:10.903Z,45.50
2019-01-06T12:03:20.088Z,45.00
2019-01-06T12:06:41.434Z,45.40
2019-01-06T12:09:50.598Z,46.40
2019-01-06T12:13:00.634Z,46.60
2019-01-06T12:16:07.088Z,47.70
2019-01-06T12:19:16.259Z,46.00
2019-01-06T12:22:22.799Z,44.30
2019-01-06T12:25:45.666Z,45.40
2019-01-06T12:29:08.115Z,44.80
2019-01-06T12:32:17.555Z,44.30
2019-01-06T12:35:32.533Z,44.80
2019-01-06T12:38:55.644Z,44.30
2019-01-06T12:42:18.242Z,44.60
2019-01-06T12:45:41.114Z,45.00
2019-01-06T12:48:56.394Z,44.80
2019-01-06T12:52:05.633Z,44.40
2019-01-06T12:55:28.189Z,44.60
2019-01-06T12:58:37.450Z,44.50
2019-01-06T13:01:43.970Z,44.60
2019-01-06T13:05:08.055Z,44.90
2019-01-06T13:08:26.455Z,45.00
2019-01-06T13:11:38.904Z,45.30
2019-01-06T13:14:48.213Z,45.00
2019-01-06T13:18:03.794Z,45.90
2019-01-06T13:21:26.414Z,45.60
2019-01-06T13:24:48.913Z,45.50
2019-01-06T13:28:01.101Z,46.50
2019-01-06T13:31:25.316Z,46.70
2019-01-06T13:34:43.689Z,46.60
2019-01-06T13:37:56.033Z,47.50
2019-01-06T13:41:08.186Z,47.00
2019-01-06T13:44:14.661Z,47.70
2019-01-06T13:47:39.184Z,47.70
2019-01-06T13:51:01.787Z,47.70
2019-01-06T13:54:08.254Z,48.40
2019-01-06T13:57:14.806Z,48.70
2019-01-06T14:00:21.263Z,48.50
2019-01-06T14:03:28.706Z,48.20
2019-01-06T14:06:41.137Z,48.40
2019-01-06T14:09:47.581Z,48.70
2019-01-06T14:12:54.101Z,48.20
2019-01-06T14:16:03.578Z,49.30
2019-01-06T14:19:10.043Z,49.80
2019-01-06T14:22:32.647Z,50.30
2019-01-06T14:25:55.163Z,49.90
2019-01-06T14:29:04.406Z,50.40
2019-01-06T14:32:16.671Z,50.90
2019-01-06T14:35:39.380Z,50.60
2019-01-06T14:39:01.909Z,50.70
2019-01-06T14:42:25.397Z,50.70
2019-01-06T14:45:40.405Z,51.20
2019-01-06T14:48:49.789Z,50.80
2019-01-06T14:51:59.224Z,51.10
2019-01-06T14:55:09.758Z,50.90
2019-01-06T14:58:28.187Z,50.90
2019-01-06T15:01:34.674Z,51.40
2019-01-06T15:04:48.182Z,51.50
2019-01-06T15:08:06.381Z,51.70
2019-01-06T15:11:21.941Z,51.90
2019-01-06T15:14:45.349Z,52.30
2019-01-06T15:17:54.603Z,52.50
2019-01-06T15:21:17.260Z,52.60
2019-01-06T15:24:29.155Z,52.50
2019-01-06T15:27:41.644Z,52.80
2019-01-06T15:31:06.058Z,53.60
2019-01-06T15:34:24.367Z,53.90
2019-01-06T15:37:36.568Z,54.40
2019-01-06T15:40:45.975Z,54.70
2019-01-06T15:44:08.444Z,54.70
2019-01-06T15:47:33.062Z,54.90
2019-01-06T15:50:39.590Z,55.70
2019-01-06T15:53:52.074Z,55.60
2019-01-06T15:56:58.531Z,55.80
2019-01-06T16:00:05.634Z,56.10
2019-01-06T16:03:12.180Z,56.40
2019-01-06T16:06:18.662Z,56.40
2019-01-06T16:09:41.106Z,56.20
2019-01-06T16:12:47.689Z,56.20
2019-01-06T16:16:06.225Z,56.30
2019-01-06T16:19:21.834Z,56.50
2019-01-06T16:22:37.373Z,56.40
2019-01-06T16:25:49.701Z,56.40
2019-01-06T16:28:56.179Z,56.40
2019-01-06T16:32:19.305Z,56.30
2019-01-06T16:35:28.850Z,56.40
2019-01-06T16:38:38.277Z,56.30
2019-01-06T16:41:50.420Z,55.90
2019-01-06T16:44:56.985Z,55.80
2019-01-06T16:48:12.279Z,56.20
2019-01-06T16:51:18.742Z,56.30
2019-01-06T16:54:25.243Z,56.20
2019-01-06T16:57:31.807Z,56.30
2019-01-06T17:00:38.546Z,55.50
2019-01-06T17:03:53.852Z,55.90
2019-01-06T17:07:16.789Z,55.90
2019-01-06T17:10:32.158Z,56.40
2019-01-06T17:13:50.367Z,56.30
2019-01-06T17:16:59.746Z,56.50
2019-01-06T17:20:23.649Z,56.40
2019-01-06T17:23:32.890Z,56.40
2019-01-06T17:26:48.205Z,56.20
2019-01-06T17:29:57.614Z,56.20
2019-01-06T17:33:09.774Z,56.60
2019-01-06T17:36:25.349Z,56.80
2019-01-06T17:39:37.700Z,57.00
2019-01-06T17:42:56.135Z,57.50
2019-01-06T17:46:02.638Z,57.70
2019-01-06T17:49:09.098Z,57.80
2019-01-06T17:52:15.585Z,58.00
2019-01-06T17:55:40.157Z,58.80
2019-01-06T17:58:46.609Z,59.00
2019-01-06T18:01:58.647Z,59.40
2019-01-06T18:05:20.610Z,59.50
2019-01-06T18:08:35.848Z,59.80
2019-01-06T18:11:48.398Z,60.00
2019-01-06T18:15:03.616Z,59.90
2019-01-06T18:18:26.441Z,60.00
2019-01-06T18:21:35.576Z,60.10
2019-01-06T18:24:58.497Z,60.20
2019-01-06T18:28:22.159Z,60.40
2019-01-06T18:31:28.887Z,60.90
2019-01-06T18:34:35.481Z,60.50
2019-01-06T18:37:58.205Z,61.00
2019-01-06T18:41:10.858Z,61.10
2019-01-06T18:44:17.310Z,61.00
2019-01-06T18:47:40.074Z,61.10
2019-01-06T18:51:04.756Z,61.40
2019-01-06T18:54:20.222Z,61.10
2019-01-06T18:57:35.811Z,61.10
2019-01-06T19:00:51.076Z,61.40
2019-01-06T19:04:13.838Z,61.40
2019-01-06T19:07:22.984Z,60.90
2019-01-06T19:10:41.370Z,60.90
2019-01-06T19:13:53.684Z,60.80
2019-01-06T19:17:00.183Z,60.60
2019-01-06T19:20:24.493Z,60.70
2019-01-06T19:23:36.754Z,60.60
2019-01-06T19:26:46.149Z,60.20
2019-01-06T19:29:55.302Z,60.30
2019-01-06T19:33:10.415Z,60.30
2019-01-06T19:36:22.649Z,60.40
2019-01-06T19:39:47.130Z,60.30
2019-01-06T19:43:08.574Z,60.50
2019-01-06T19:46:15.153Z,59.60
2019-01-06T19:49:21.624Z,60.00
2019-01-06T19:52:34.734Z,59.70
2019-01-06T19:55:47.096Z,59.80
2019-01-06T19:59:09.791Z,60.00
2019-01-06T20:02:22.275Z,59.70
2019-01-06T20:05:37.607Z,60.10
2019-01-06T20:09:00.218Z,60.20
2019-01-06T20:12:22.572Z,60.30
2019-01-06T20:15:31.427Z,60.60
2019-01-06T20:18:40.921Z,60.50
2019-01-06T20:22:03.420Z,60.40
2019-01-06T20:25:15.793Z,60.30
2019-01-06T20:28:31.341Z,60.50
2019-01-06T20:31:40.835Z,60.40
2019-01-06T20:34:53.145Z,60.10
2019-01-06T20:38:11.895Z,60.20
2019-01-06T20:41:21.359Z,60.30
2019-01-06T20:44:33.950Z,60.50
2019-01-06T20:47:43.155Z,60.40
2019-01-06T20:50:49.642Z,60.30
2019-01-06T20:53:59.658Z,60.60
2019-01-06T20:57:15.095Z,60.70
2019-01-06T21:00:21.567Z,61.50
2019-01-06T21:03:30.711Z,60.70
2019-01-06T21:06:53.657Z,60.60
2019-01-06T21:10:02.782Z,60.80
2019-01-06T21:13:25.275Z,60.70
2019-01-06T21:16:37.533Z,60.60
2019-01-06T21:19:44.047Z,60.80
2019-01-06T21:22:53.569Z,60.90
2019-01-06T21:26:00.093Z,60.70
2019-01-06T21:29:09.176Z,60.90
2019-01-06T21:32:31.661Z,61.10
2019-01-06T21:35:41.678Z,61.10
2019-01-06T21:39:04.499Z,61.10
2019-01-06T21:42:27.180Z,61.90
2019-01-06T21:45:33.638Z,61.20
2019-01-06T21:48:56.090Z,61.80
2019-01-06T21:52:06.413Z,61.90
2019-01-06T21:55:24.930Z,62.00
2019-01-06T21:58:34.378Z,62.10
2019-01-06T22:01:46.513Z,62.20
2019-01-06T22:05:04.773Z,62.40
2019-01-06T22:08:11.261Z,62.70
2019-01-06T22:11:26.170Z,62.50
2019-01-06T22:14:32.674Z,62.50
2019-01-06T22:17:57.291Z,62.50
2019-01-06T22:21:19.625Z,62.70
2019-01-06T22:24:34.925Z,62.60
2019-01-06T22:27:41.447Z,62.70
2019-01-06T22:31:04.029Z,62.80
2019-01-06T22:34:26.710Z,62.80
2019-01-06T22:37:52.286Z,62.80
2019-01-06T22:41:04.799Z,62.60
2019-01-06T22:44:11.337Z,62.50
2019-01-06T22:47:34.128Z,62.60
2019-01-06T22:50:40.679Z,63.00
2019-01-06T22:54:03.384Z,63.20
2019-01-06T22:57:12.842Z,63.20
2019-01-06T23:00:30.958Z,63.10
2019-01-06T23:03:54.414Z,63.30
2019-01-06T23:07:00.899Z,63.40
2019-01-06T23:10:11.088Z,63.30
2019-01-06T23:13:26.284Z,63.40
2019-01-06T23:16:32.855Z,63.20
2019-01-06T23:19:51.905Z,63.20
2019-01-06T23:22:58.454Z,63.50
2019-01-06T23:26:20.930Z,63.40
2019-01-06T23:29:42.630Z,63.20
2019-01-06T23:32:49.138Z,63.60
2019-01-06T23:35:55.691Z,63.50
2019-01-06T23:39:18.253Z,63.60
2019-01-06T23:42:36.826Z,63.50
2019-01-06T23:45:43.278Z,63.50
2019-01-06T23:49:05.995Z,63.80
2019-01-06T23:52:28.739Z,63.80
2019-01-06T23:55:47.046Z,63.90
2019-01-06T23:58:59.217Z,63.80
